createdAt,value
2022-08-02T00:04:17.881Z,10.18
2022-08-02T00:10:22.798Z,6.82
2022-08-02T00:16:37.618Z,5.85
2022-08-02T00:22:41.462Z,6.03
2022-08-02T00:28:46.334Z,6.82
2022-08-02T00:34:50.153Z,4.53
2022-08-02T00:40:58.063Z,6.95
2022-08-02T00:47:03.350Z,6.53
2022-08-02T00:53:09.217Z,5.85
2022-08-02T00:59:12.684Z,5.82
2022-08-02T01:05:20.654Z,3.45
2022-08-02T01:11:24.189Z,6.65
2022-08-02T01:17:36.215Z,6.97
2022-08-02T01:23:58.434Z,6.97
2022-08-02T01:30:05.237Z,6.88
2022-08-02T01:36:13.094Z,4.45
2022-08-02T01:42:19.470Z,7.00
2022-08-02T01:48:27.754Z,5.82
2022-08-02T01:54:34.119Z,3.63
2022-08-02T02:00:41.540Z,4.63
2022-08-02T02:06:47.779Z,6.45
2022-08-02T02:12:52.601Z,4.47
2022-08-02T02:18:56.476Z,4.95
2022-08-02T02:25:01.575Z,5.53
2022-08-02T02:31:13.984Z,8.23
2022-08-02T02:37:22.076Z,7.45
2022-08-02T02:43:30.174Z,7.82
2022-08-02T02:49:36.116Z,5.63
2022-08-02T02:55:40.529Z,5.13
2022-08-02T03:02:07.320Z,6.07
2022-08-02T03:08:11.011Z,4.50
2022-08-02T03:14:15.537Z,5.30
2022-08-02T03:20:22.829Z,6.63
2022-08-02T03:26:26.494Z,6.68
2022-08-02T03:32:30.263Z,7.53
2022-08-02T03:38:36.944Z,7.72
2022-08-02T03:44:41.395Z,5.00
2022-08-02T03:50:48.151Z,5.57
2022-08-02T03:56:53.780Z,5.05
2022-08-02T04:02:57.447Z,5.43
2022-08-02T04:09:01.106Z,4.23
2022-08-02T04:15:08.281Z,4.50
2022-08-02T04:21:16.168Z,6.32
2022-08-02T04:27:50.516Z,4.35
2022-08-02T04:33:47.849Z,6.38
2022-08-02T04:39:51.566Z,7.68
2022-08-02T04:45:56.438Z,5.93
2022-08-02T04:52:01.698Z,5.60
2022-08-02T04:58:23.740Z,7.45
2022-08-02T05:04:28.913Z,6.13
2022-08-02T05:10:33.822Z,5.77
2022-08-02T05:16:37.402Z,8.10
2022-08-02T05:22:41.109Z,8.27
2022-08-02T05:28:46.064Z,6.60
2022-08-02T05:34:49.588Z,6.75
2022-08-02T05:40:54.713Z,4.43
2022-08-02T05:47:00.142Z,6.03
2022-08-02T05:53:06.902Z,7.13
2022-08-02T05:59:19.086Z,5.90
2022-08-02T06:05:26.938Z,6.18
2022-08-02T06:11:37.792Z,7.85
2022-08-02T06:17:45.658Z,5.60
2022-08-02T06:23:58.576Z,10.77
2022-08-02T06:30:03.661Z,4.97
2022-08-02T06:36:11.261Z,5.32
2022-08-02T06:42:27.160Z,6.68
2022-08-02T06:48:32.009Z,6.38
2022-08-02T06:54:36.242Z,5.40
2022-08-02T07:06:44.900Z,4.15
2022-08-02T07:12:48.454Z,8.77
2022-08-02T07:18:53.371Z,4.47
2022-08-02T07:24:58.567Z,6.82
2022-08-02T07:31:02.366Z,6.63
2022-08-02T07:37:07.328Z,4.88
2022-08-02T07:43:13.359Z,5.18
2022-08-02T07:49:18.746Z,3.57
2022-08-02T07:55:23.821Z,4.95
2022-08-02T08:01:27.527Z,5.05
2022-08-02T08:07:31.246Z,5.30
2022-08-02T08:13:36.297Z,5.97
2022-08-02T08:19:52.140Z,5.20
2022-08-02T08:25:56.302Z,5.15
2022-08-02T08:32:01.638Z,7.13
2022-08-02T08:38:07.949Z,3.90
2022-08-02T08:44:11.647Z,5.68
2022-08-02T08:50:24.957Z,6.17
2022-08-02T08:56:31.606Z,6.68
2022-08-02T09:02:36.115Z,5.03
2022-08-02T09:08:41.113Z,4.25
2022-08-02T09:14:44.844Z,3.42
2022-08-02T09:20:57.558Z,4.63
2022-08-02T09:27:12.636Z,6.10
2022-08-02T09:39:22.965Z,6.00
2022-08-02T09:45:34.630Z,4.57
2022-08-02T09:51:40.060Z,7.55
2022-08-02T09:57:44.001Z,7.20
2022-08-02T10:04:00.842Z,6.22
2022-08-02T10:10:05.653Z,4.72
2022-08-02T10:16:10.281Z,6.18
2022-08-02T10:22:19.888Z,5.50
2022-08-02T10:28:30.966Z,5.60
2022-08-02T10:34:37.851Z,5.90
2022-08-02T10:40:48.323Z,7.07
2022-08-02T10:46:52.189Z,4.20
2022-08-02T10:53:21.314Z,4.70
2022-08-02T10:59:27.990Z,4.85
2022-08-02T11:05:43.165Z,3.92
2022-08-02T11:12:02.879Z,3.97
2022-08-02T11:18:07.891Z,6.60
2022-08-02T11:24:29.522Z,4.15
2022-08-02T11:30:33.121Z,4.13
2022-08-02T11:36:47.305Z,7.45
2022-08-02T11:48:54.612Z,6.40
2022-08-02T11:54:59.590Z,6.93
2022-08-02T12:01:04.345Z,7.82
2022-08-02T12:07:08.574Z,7.10
2022-08-02T12:13:13.633Z,7.35
2022-08-02T12:19:20.298Z,4.30
2022-08-02T12:25:34.833Z,5.85
2022-08-02T12:31:56.743Z,5.07
2022-08-02T12:38:10.934Z,3.22
2022-08-02T12:44:19.661Z,4.30
2022-08-02T12:50:27.495Z,4.10
2022-08-02T12:56:34.395Z,7.20
2022-08-02T13:02:37.902Z,3.47
2022-08-02T13:08:42.965Z,4.70
2022-08-02T13:14:46.501Z,4.75
2022-08-02T13:20:50.185Z,7.18
2022-08-02T13:26:55.103Z,5.50
2022-08-02T13:33:01.173Z,2.97
2022-08-02T13:39:06.767Z,7.05
2022-08-02T13:45:14.113Z,5.22
2022-08-02T13:51:18.129Z,3.97
2022-08-02T13:57:21.714Z,7.40
2022-08-02T14:03:26.725Z,5.55
2022-08-02T14:09:50.252Z,11.25
2022-08-02T14:15:53.862Z,7.07
2022-08-02T14:22:11.275Z,4.70
2022-08-02T14:28:15.871Z,6.10
2022-08-02T14:40:30.803Z,5.50
2022-08-02T14:46:37.167Z,6.85
2022-08-02T14:52:40.722Z,18.83
2022-08-02T14:58:45.687Z,5.13
2022-08-02T15:04:49.257Z,5.00
2022-08-02T15:16:59.002Z,3.23
2022-08-02T15:23:03.539Z,4.35
2022-08-02T15:29:07.102Z,4.55
2022-08-02T15:35:12.015Z,5.50
2022-08-02T15:41:15.746Z,3.80
2022-08-02T15:53:24.211Z,4.27
2022-08-02T15:59:28.065Z,6.85
2022-08-02T16:05:31.606Z,6.10
2022-08-02T16:11:36.729Z,7.13
2022-08-02T16:17:49.355Z,6.05
2022-08-02T16:24:01.058Z,7.07
2022-08-02T16:30:09.666Z,6.03
2022-08-02T16:36:14.098Z,6.20
2022-08-02T16:42:25.448Z,6.70
2022-08-02T16:48:30.932Z,3.42
2022-08-02T16:54:34.899Z,5.82
2022-08-02T17:00:46.622Z,6.00
2022-08-02T17:06:52.884Z,6.70
2022-08-02T17:12:57.026Z,7.82
2022-08-02T17:19:01.073Z,6.25
2022-08-02T17:25:07.051Z,4.03
2022-08-02T17:31:14.829Z,4.78
2022-08-02T17:37:18.545Z,7.68
2022-08-02T17:43:25.936Z,6.40
2022-08-02T17:49:33.548Z,11.18
2022-08-02T17:55:42.296Z,7.55
2022-08-02T18:01:53.269Z,7.43
2022-08-02T18:08:01.079Z,4.93
2022-08-02T18:14:04.881Z,7.43
2022-08-02T18:20:12.556Z,6.78
2022-08-02T18:26:17.721Z,4.03
2022-08-02T18:33:55.240Z,6.80
2022-08-02T18:38:49.956Z,8.52
2022-08-02T18:44:55.896Z,12.32
2022-08-02T18:51:00.611Z,6.18
2022-08-02T18:58:04.373Z,8.50
2022-08-02T19:03:29.689Z,8.35
2022-08-02T19:09:40.766Z,7.55
2022-08-02T19:15:46.233Z,7.78
2022-08-02T19:22:18.198Z,9.27
2022-08-02T19:28:15.073Z,11.23
2022-08-02T19:34:20.067Z,9.63
2022-08-02T19:40:29.703Z,8.35
2022-08-02T19:46:35.999Z,9.15
2022-08-02T19:52:42.180Z,9.40
2022-08-02T19:58:48.274Z,10.52
2022-08-02T20:05:00.859Z,10.32
2022-08-02T20:11:14.951Z,17.13
2022-08-02T20:17:20.670Z,17.75
2022-08-02T20:23:34.027Z,18.95
2022-08-02T20:29:45.128Z,18.83
2022-08-02T20:35:54.736Z,18.05
2022-08-02T20:42:02.214Z,15.00
2022-08-02T20:48:11.157Z,15.10
2022-08-02T20:54:16.420Z,11.80
2022-08-02T21:00:25.011Z,11.18
2022-08-02T21:06:30.999Z,14.52
2022-08-02T21:12:36.301Z,9.75
2022-08-02T21:18:45.150Z,7.95
2022-08-02T21:24:50.160Z,8.63
2022-08-02T21:30:55.218Z,7.90
2022-08-02T21:36:58.740Z,6.50
2022-08-02T21:43:03.786Z,6.60
2022-08-02T21:49:13.093Z,4.95
2022-08-02T22:01:31.629Z,7.05
2022-08-02T22:07:38.171Z,9.50
2022-08-02T22:13:47.664Z,5.65
2022-08-02T22:19:53.994Z,5.45
2022-08-02T22:25:58.220Z,4.55
2022-08-02T22:32:02.759Z,8.43
2022-08-02T22:38:14.756Z,5.28
2022-08-02T22:44:21.886Z,4.93
2022-08-02T22:50:27.607Z,7.63
2022-08-02T22:56:32.586Z,5.95
2022-08-02T23:02:36.246Z,5.78
2022-08-02T23:08:41.857Z,5.97
2022-08-02T23:14:47.255Z,7.40
2022-08-02T23:20:50.750Z,5.38
2022-08-02T23:26:54.257Z,7.80
2022-08-02T23:32:59.181Z,7.50
2022-08-02T23:39:03.193Z,5.57
2022-08-02T23:45:07.442Z,7.07
2022-08-02T23:51:21.990Z,5.28
2022-08-02T23:57:25.899Z,5.13
